CheckWX is a tool to help pilots better visualize weather data.  It is not intended as a substitute for an official pre-flight weather briefing.

05:15:14 UTC

HTDA TAF
Julius Nyerere International Airport
Dar es Salaam, Tanzania
HTDA 232300Z 2400/2506 00000KT 9999 SCT010 TEMPO 2402/2407 SHRA BKN013 BECMG 2408/2411 04010KT

Feb-24@
00:00 UTC

Feb-24 @ 00:00 UTC

Feb-24@
08:00 UTC

Feb-24 @ 08:00 UTC

HTDA 232300Z 2400/2506 00000KT 9999 SCT010
Cloud Levels
  • Scattered at 1,000' AGL

Feb-24@
02:00 UTC

Feb-24 @ 02:00 UTC

Feb-24@
07:00 UTC

Feb-24 @ 07:00 UTC

TEMPO 2402/2407 SHRA BKN013

Temporary

Temporary Changes expected for less than half the time period

Conditions
Rain
Cloud Levels
  • Broken at 1,300' AGL

Feb-24@
08:00 UTC

Feb-24 @ 08:00 UTC

Feb-25@
06:00 UTC

Feb-25 @ 06:00 UTC

BECMG 2408/2411 04010KT

Becoming

Becoming Conditions expected by Sun, Feb 24, 2019 @ 11:00 UTC

Wind
  • 040° at 10 KTS
Cloud Levels
  • Scattered at 1,000' AGL